Time;durP1;ratioP1;P1;durP2;ratioP2;P2;SDS_P1;SDS_P2;PMS_P1;PMS_P2;Temp;Humidity;BMP_temperature;BMP_pressure;BME280_temperature;BME280_humidity;BME280_pressure;Samples;Min_cycle;Max_cycle;Signal;HPM_P1;HPM_P2
2020/12/01 00:00:26;;;;;;;10.80;5.53;;;;;;;-9.28;79.13;93796.77;1703121;84;21223;-78
2020/12/01 00:02:54;;;;;;;48.03;20.67;;;;;;;-9.22;79.18;93794.91;1756667;80;21828;-76
2020/12/01 00:05:24;;;;;;;40.70;18.10;;;;;;;-9.19;78.90;93796.50;1780687;79;21802;-78
2020/12/01 00:07:53;;;;;;;27.27;12.63;;;;;;;-9.21;78.61;93797.80;1776171;80;21174;-79
2020/12/01 00:10:22;;;;;;;20.17;8.97;;;;;;;-9.19;78.56;93795.71;1799332;79;21061;-76
2020/12/01 00:12:56;;;;;;;12.73;7.47;;;;;;;-9.17;78.44;93797.03;1797713;79;21052;-76
2020/12/01 00:15:29;;;;;;;;;;;;;;;-9.21;78.28;93792.03;1765244;80;21503;-78
2020/12/01 00:17:57;;;;;;;26.20;9.90;;;;;;;-9.31;78.40;93799.39;1718803;79;22111;-74
2020/12/01 00:20:27;;;;;;;33.30;13.70;;;;;;;-9.32;78.58;93791.77;1788205;80;21170;-77
2020/12/01 00:23:00;;;;;;;41.53;17.27;;;;;;;-9.36;78.32;93794.13;1774409;79;21163;-80
2020/12/01 00:25:36;;;;;;;45.93;20.83;;;;;;;-9.44;77.95;93792.52;1772565;79;21485;-77
2020/12/01 00:28:04;;;;;;;48.57;19.30;;;;;;;-9.56;77.90;93792.77;1773528;80;21008;-79
2020/12/01 00:30:36;;;;;;;46.40;18.97;;;;;;;-9.61;77.97;93800.67;1776155;80;21198;-77
2020/12/01 00:33:06;;;;;;;48.40;21.07;;;;;;;-9.67;77.91;93797.75;1778565;80;21044;-77
2020/12/01 00:35:38;;;;;;;35.97;15.60;;;;;;;-9.74;77.99;93799.34;1770733;81;21096;-77
2020/12/01 00:38:08;;;;;;;31.63;14.67;;;;;;;-9.77;78.16;93800.38;1778608;79;21621;-80
2020/12/01 00:40:39;;;;;;;23.63;11.17;;;;;;;-9.77;78.08;93795.11;1773938;80;21103;-78
2020/12/01 00:43:08;;;;;;;35.30;16.07;;;;;;;-9.77;78.16;93803.80;1770992;80;21189;-82
2020/12/01 00:45:40;;;;;;;24.47;12.40;;;;;;;-9.73;78.16;93802.23;1762546;81;21643;-77
2020/12/01 00:48:12;;;;;;;27.97;12.47;;;;;;;-9.76;77.78;93801.95;1719564;80;21127;-77
2020/12/01 00:50:44;;;;;;;12.47;7.40;;;;;;;-9.80;77.73;93801.67;1790158;80;21100;-78
2020/12/01 00:53:14;;;;;;;41.77;18.93;;;;;;;-9.81;77.77;93804.05;1747681;80;21123;-79
2020/12/01 00:55:43;;;;;;;28.40;11.97;;;;;;;-9.86;77.93;93794.81;1773951;80;21617;-78
2020/12/01 00:58:12;;;;;;;37.83;16.80;;;;;;;-9.85;78.12;93798.52;1773224;80;21547;-76
2020/12/01 01:00:45;;;;;;;45.30;21.23;;;;;;;-9.81;78.11;93798.79;1772454;80;21064;-77
2020/12/01 01:03:14;;;;;;;61.87;24.23;;;;;;;-9.76;77.97;93801.95;1788925;80;21139;-78
2020/12/01 01:05:42;;;;;;;47.73;21.27;;;;;;;-9.76;77.86;93796.69;1770775;81;21032;-79
2020/12/01 01:08:14;;;;;;;37.73;15.97;;;;;;;-9.77;77.78;93794.59;1771119;80;21790;-77
2020/12/01 01:10:45;;;;;;;29.53;13.70;;;;;;;-9.74;77.79;93795.89;1769938;80;21156;-80
2020/12/01 01:13:13;;;;;;;30.53;12.83;;;;;;;-9.77;77.61;93786.69;1768165;80;21028;-78
2020/12/01 01:15:44;;;;;;;41.63;19.03;;;;;;;-9.78;77.74;93783.77;1774818;80;21448;-78
2020/12/01 01:18:16;;;;;;;41.25;19.37;;;;;;;-9.81;77.53;93775.89;1771209;80;21092;-77
2020/12/01 01:20:50;;;;;;;38.67;16.87;;;;;;;-9.91;77.20;93777.17;1771262;81;21633;-78
2020/12/01 01:23:18;;;;;;;31.50;14.13;;;;;;;-10.01;77.39;93781.08;1771102;80;21076;-76
2020/12/01 01:25:48;;;;;;;17.20;8.10;;;;;;;-10.03;77.60;93783.98;1770229;80;21139;-79
2020/12/01 01:28:21;;;;;;;9.47;5.67;;;;;;;-10.02;77.66;93782.14;1771578;79;21148;-80
2020/12/01 01:30:49;;;;;;;9.73;5.63;;;;;;;-10.11;77.60;93783.70;1771001;79;21136;-78
2020/12/01 01:33:18;;;;;;;16.90;7.93;;;;;;;-10.21;77.91;93781.02;1770692;80;21112;-78
2020/12/01 01:35:52;;;;;;;32.60;15.30;;;;;;;-10.20;78.26;93781.28;1772953;80;21147;-80
2020/12/01 01:38:26;;;;;;;38.70;17.33;;;;;;;-10.18;78.06;93787.09;1717545;82;21097;-79
2020/12/01 01:40:59;;;;;;;30.07;14.90;;;;;;;-10.21;77.80;93782.34;1770761;80;21546;-76
2020/12/01 01:43:27;;;;;;;12.20;5.53;;;;;;;-10.25;77.79;93782.09;1774427;79;21187;-80
2020/12/01 01:45:58;;;;;;;6.97;4.60;;;;;;;-10.27;77.88;93771.02;1776404;80;21383;-79
2020/12/01 01:48:32;;;;;;;8.07;4.77;;;;;;;-10.26;78.04;93775.26;1771679;80;21598;-80
2020/12/01 01:51:16;;;;;;;12.70;6.23;;;;;;;-10.24;78.11;93773.11;1779421;80;21092;-78
2020/12/01 01:53:48;;;;;;;18.33;8.53;;;;;;;-10.21;78.17;93769.98;1772643;79;21634;-79
2020/12/01 01:56:26;;;;;;;24.55;10.68;;;;;;;-10.15;77.98;93772.11;1776091;80;21099;-77
2020/12/01 01:58:59;;;;;;;63.17;26.57;;;;;;;-10.17;77.80;93765.78;1773276;80;21870;-76
2020/12/01 02:01:28;;;;;;;72.63;27.47;;;;;;;-10.19;77.50;93765.77;1774412;80;21143;-78
2020/12/01 02:04:06;;;;;;;60.40;24.23;;;;;;;-10.29;77.19;93762.09;1776584;80;21160;-76
2020/12/01 02:06:42;;;;;;;60.23;24.17;;;;;;;-10.39;77.22;93757.31;1769428;80;21053;-78
2020/12/01 02:09:25;;;;;;;56.70;26.27;;;;;;;-10.53;77.31;93760.92;1776351;80;21444;-79
2020/12/01 02:12:00;;;;;;;62.23;23.53;;;;;;;-10.67;77.58;93769.80;1778641;80;21626;-75
2020/12/01 02:14:44;;;;;;;57.07;23.87;;;;;;;-10.77;77.72;93763.17;1776485;80;21529;-78
2020/12/01 02:17:30;;;;;;;59.67;23.20;;;;;;;-10.85;77.77;93757.88;1778064;80;21151;-76
2020/12/01 02:20:17;;;;;;;51.73;21.03;;;;;;;-10.92;77.95;93761.25;1778468;79;21076;-79
2020/12/01 02:22:51;;;;;;;37.70;17.80;;;;;;;-10.90;78.15;93761.80;1772266;80;21068;-78
2020/12/01 02:25:18;;;;;;;31.30;15.00;;;;;;;-10.82;78.18;93762.62;1769194;80;22078;-76
2020/12/01 02:27:52;;;;;;;48.47;20.67;;;;;;;-10.81;78.07;93757.63;1771362;80;21492;-78
2020/12/01 02:30:22;;;;;;;43.73;18.57;;;;;;;-10.81;78.06;93761.58;1771493;81;21472;-75
2020/12/01 02:32:56;;;;;;;43.50;19.50;;;;;;;-10.79;78.11;93766.06;1770144;80;21633;-76
2020/12/01 02:35:25;;;;;;;43.70;18.23;;;;;;;-10.73;78.11;93769.50;1770680;80;21425;-77
2020/12/01 02:37:56;;;;;;;48.77;20.40;;;;;;;-10.74;78.02;93768.45;1753985;81;21200;-77
2020/12/01 02:40:25;;;;;;;49.03;21.57;;;;;;;-10.76;77.98;93770.79;1751709;80;21472;-78
2020/12/01 02:42:53;;;;;;;49.83;19.50;;;;;;;-10.78;78.00;93763.70;1779019;80;21140;-76
2020/12/01 02:45:23;;;;;;;38.60;18.33;;;;;;;-10.77;78.07;93767.11;1775844;80;21053;-76
2020/12/01 02:47:55;;;;;;;42.67;17.87;;;;;;;-10.75;78.06;93770.30;1771856;80;21041;-77
2020/12/01 02:50:23;;;;;;;48.07;21.13;;;;;;;-10.70;77.90;93763.74;1771453;80;22456;-79
2020/12/01 02:52:55;;;;;;;44.27;19.70;;;;;;;-10.66;77.91;93772.70;1771596;79;21056;-79
2020/12/01 02:55:28;;;;;;;43.23;19.83;;;;;;;-10.66;77.56;93761.39;1776832;80;21611;-79
2020/12/01 02:57:58;;;;;;;39.07;18.13;;;;;;;-10.72;77.53;93766.34;1771275;80;21140;-76
2020/12/01 03:00:28;;;;;;;36.13;17.13;;;;;;;-10.77;77.50;93762.64;1776331;80;21509;-80
2020/12/01 03:03:04;;;;;;;38.67;17.70;;;;;;;-10.81;77.62;93759.47;1771347;80;21640;-76
2020/12/01 03:05:36;;;;;;;48.43;22.30;;;;;;;-10.88;77.54;93759.69;1768679;80;21586;-80
2020/12/01 03:08:10;;;;;;;42.50;17.73;;;;;;;-10.92;77.49;93763.09;1782108;80;21080;-80
2020/12/01 03:10:40;;;;;;;39.37;17.27;;;;;;;-10.97;77.41;93760.44;1781158;80;21187;-78
2020/12/01 03:13:12;;;;;;;31.33;13.93;;;;;;;-11.04;77.51;93764.59;1780758;80;21255;-76
2020/12/01 03:15:45;;;;;;;35.97;17.77;;;;;;;-11.07;77.59;93766.41;1778268;80;22067;-78
2020/12/01 03:18:14;;;;;;;51.77;22.83;;;;;;;-11.12;77.53;93756.66;1712795;81;21270;-76
2020/12/01 03:20:42;;;;;;;44.27;20.87;;;;;;;-11.16;77.55;93752.96;1776490;80;21004;-78
2020/12/01 03:23:18;;;;;;;51.10;21.30;;;;;;;-11.20;77.44;93756.34;1763879;80;21178;-79
2020/12/01 03:25:54;;;;;;;38.90;17.73;;;;;;;-11.29;77.54;93752.85;1749441;80;21162;-79
2020/12/01 03:28:17;;;;;;;36.30;16.60;;;;;;;-11.30;77.76;93759.16;1756814;80;21243;-79
2020/12/01 03:30:50;;;;;;;37.47;14.83;;;;;;;-11.30;77.95;93754.43;1778198;80;21262;-78
2020/12/01 03:33:25;;;;;;;26.43;11.63;;;;;;;-11.32;78.01;93755.19;1765138;81;21043;-77
2020/12/01 03:36:00;;;;;;;28.97;12.47;;;;;;;-11.29;78.13;93752.06;1759306;81;21181;-77
2020/12/01 03:38:31;;;;;;;27.03;13.47;;;;;;;-11.23;78.05;93755.53;1753445;80;21147;-80
2020/12/01 03:41:04;;;;;;;21.60;11.30;;;;;;;-11.19;78.31;93756.09;1788460;78;21044;-78
2020/12/01 03:43:37;;;;;;;27.37;12.93;;;;;;;-11.13;78.23;93759.03;1782837;79;21518;-81
2020/12/01 03:46:06;;;;;;;46.07;19.57;;;;;;;-11.08;78.11;93752.48;1752408;81;21071;-78
2020/12/01 03:48:38;;;;;;;60.23;27.20;;;;;;;-11.11;77.79;93754.30;1703847;84;21152;-78
2020/12/01 03:51:20;;;;;;;63.17;27.13;;;;;;;-11.13;77.71;93755.09;1714547;80;21158;-79
2020/12/01 03:53:58;;;;;;;33.33;16.70;;;;;;;-11.13;77.60;93758.21;1741387;81;21049;-77
2020/12/01 03:56:31;;;;;;;25.67;10.83;;;;;;;-11.11;77.60;93752.20;1738283;82;21099;-80
2020/12/01 03:59:08;;;;;;;20.70;10.50;;;;;;;-11.05;77.48;93746.73;1760545;80;21181;-79
2020/12/01 04:01:49;;;;;;;27.83;13.13;;;;;;;-10.92;77.47;93748.64;1889631;76;26542;-77
2020/12/01 04:04:28;;;;;;;11.77;5.93;;;;;;;-10.89;77.37;93756.02;1744428;80;21068;-78
2020/12/01 04:07:05;;;;;;;12.50;7.50;;;;;;;-10.96;77.12;93750.19;1729164;81;21655;-78
2020/12/01 04:09:40;;;;;;;18.70;8.87;;;;;;;-10.99;77.33;93759.36;1738632;81;21393;-78
2020/12/01 04:12:20;;;;;;;13.30;6.70;;;;;;;-10.99;76.98;93744.13;1769553;79;21068;-77
2020/12/01 04:15:02;;;;;;;;;;;;;;;;;;;;;
2020/12/01 04:17:40;;;;;;;14.67;7.43;;;;;;;-11.02;76.57;93748.05;1816648;79;27283;-77
2020/12/01 04:20:11;;;;;;;17.47;7.67;;;;;;;-11.06;76.55;93747.75;1720494;80;21109;-79
2020/12/01 04:22:53;;;;;;;;;;;;;;;;;;;;;
2020/12/01 04:25:31;;;;;;;45.27;18.03;;;;;;;-11.00;76.47;93747.28;1843074;77;27051;-77
2020/12/01 11:42:05;;;;;;;20.73;10.40;;;;;;;-0.61;59.94;93510.70;1810004;77;21598;-79
2020/12/01 11:44:33;;;;;;;16.45;10.08;;;;;;;-0.56;59.76;93509.98;1826358;76;21167;-79
2020/12/01 11:47:01;;;;;;;31.12;14.43;;;;;;;-0.51;59.66;93515.13;1870654;75;21199;-78
2020/12/01 11:49:29;;;;;;;37.05;16.30;;;;;;;-0.48;60.00;93507.59;1811250;77;21695;-78
2020/12/01 11:51:58;;;;;;;31.20;16.30;;;;;;;-0.48;60.14;93507.03;1828536;78;21643;-79
2020/12/01 11:54:26;;;;;;;28.92;14.43;;;;;;;-0.54;60.52;93501.08;1828886;78;21186;-79
2020/12/01 11:56:55;;;;;;;26.07;13.30;;;;;;;-0.63;59.89;93507.03;1861696;76;21153;-79
2020/12/01 11:59:23;;;;;;;26.33;14.00;;;;;;;-0.75;60.21;93510.39;1813357;78;21173;-79
2020/12/01 12:01:51;;;;;;;24.35;13.75;;;;;;;-0.79;60.99;93502.79;1783875;78;21868;-79
2020/12/01 12:04:19;;;;;;;18.60;10.85;;;;;;;-0.77;61.69;93496.56;1798420;79;21150;-79
2020/12/01 12:06:48;;;;;;;17.65;9.80;;;;;;;-0.74;62.12;93488.47;1801606;78;21377;-79
2020/12/01 12:09:18;;;;;;;19.27;11.38;;;;;;;-0.71;61.98;93491.03;1823228;78;21691;-78
2020/12/01 12:11:46;;;;;;;32.58;17.45;;;;;;;-0.68;61.99;93483.71;1843642;77;21147;-79
2020/12/01 12:14:15;;;;;;;17.57;10.35;;;;;;;-0.67;62.18;93481.30;1860777;75;21171;-78
2020/12/01 12:16:43;;;;;;;20.08;10.75;;;;;;;-0.64;62.29;93477.42;1792243;76;21166;-79
2020/12/01 12:19:11;;;;;;;15.08;9.40;;;;;;;-0.66;62.05;93486.30;1830900;78;21413;-78
2020/12/01 12:21:40;;;;;;;17.45;9.50;;;;;;;-0.67;62.20;93487.41;1768682;79;21743;-79
2020/12/01 12:24:08;;;;;;;11.95;7.40;;;;;;;-0.69;62.42;93490.95;1820338;78;21163;-79
2020/12/01 12:26:38;;;;;;;13.10;7.75;;;;;;;-0.69;62.08;93482.16;1819358;78;21168;-79
2020/12/01 12:29:06;;;;;;;16.73;9.57;;;;;;;-0.72;61.99;93486.25;1803185;78;21168;-79
2020/12/01 12:31:34;;;;;;;21.50;11.70;;;;;;;-0.76;62.30;93490.11;1829304;78;21612;-79
2020/12/01 12:34:03;;;;;;;24.65;14.65;;;;;;;-0.81;62.36;93489.52;1800904;78;21197;-79
2020/12/01 12:36:32;;;;;;;21.60;12.10;;;;;;;-0.87;62.65;93481.45;1828146;78;21068;-79
2020/12/01 12:39:00;;;;;;;20.50;11.80;;;;;;;-0.96;63.00;93478.05;1832208;77;21144;-79
2020/12/01 12:41:29;;;;;;;19.48;11.78;;;;;;;-1.03;63.22;93483.33;1820443;78;21185;-79
2020/12/01 12:43:57;;;;;;;22.05;13.48;;;;;;;-1.07;63.61;93482.41;1801293;78;22406;-79
2020/12/01 12:46:25;;;;;;;15.30;8.60;;;;;;;-1.10;63.23;93490.27;1828122;78;21195;-78
2020/12/01 12:48:54;;;;;;;30.62;16.85;;;;;;;-1.14;63.12;93488.78;1832303;76;21132;-78
2020/12/01 12:51:22;;;;;;;29.18;17.95;;;;;;;-1.24;63.30;93485.94;1811240;78;21565;-80
2020/12/01 12:53:50;;;;;;;26.57;19.27;;;;;;;-1.36;63.75;93489.80;1812181;78;21101;-80
2020/12/01 12:56:20;;;;;;;20.12;14.20;;;;;;;-1.48;63.95;93491.79;1822219;78;21255;-77
2020/12/01 12:58:52;;;;;;;16.07;10.30;;;;;;;-1.56;64.38;93482.48;1774016;79;21762;-79
2020/12/01 13:01:20;;;;;;;14.50;8.63;;;;;;;-1.67;64.87;93484.69;1845268;77;21139;-78
2020/12/01 13:03:49;;;;;;;13.40;8.40;;;;;;;-1.83;65.19;93486.30;1816112;77;21161;-79
2020/12/01 13:06:17;;;;;;;16.30;9.63;;;;;;;-2.11;65.74;93488.48;1820079;78;21441;-79
2020/12/01 13:08:46;;;;;;;19.97;11.53;;;;;;;-2.28;66.28;93490.06;1841109;76;21174;-78
2020/12/01 13:11:16;;;;;;;18.03;9.87;;;;;;;-2.38;66.64;93489.03;1879188;75;21321;-80
2020/12/01 13:13:45;;;;;;;18.17;11.13;;;;;;;-2.41;67.04;93490.20;1790519;79;21193;-78
2020/12/01 13:16:18;;;;;;;15.23;9.70;;;;;;;-2.46;67.07;93492.47;1858136;76;21126;-78
2020/12/01 13:18:46;;;;;;;15.93;9.57;;;;;;;-2.56;67.47;93492.20;1808909;79;21195;-77
2020/12/01 13:21:14;;;;;;;13.73;7.70;;;;;;;-2.73;67.92;93496.18;1784580;80;22068;-79
2020/12/01 13:23:42;;;;;;;11.73;7.70;;;;;;;-2.90;68.39;93495.57;1814053;78;21184;-79
2020/12/01 13:26:11;;;;;;;14.17;8.73;;;;;;;-3.04;68.95;93497.58;1797225;79;21166;-78
2020/12/01 13:28:40;;;;;;;11.13;6.67;;;;;;;-3.20;69.41;93498.52;1754705;80;21588;-79
2020/12/01 13:31:08;;;;;;;9.27;6.20;;;;;;;-3.29;69.97;93489.18;1799434;79;21644;-78
2020/12/01 13:33:39;;;;;;;13.07;7.93;;;;;;;-3.44;70.31;93498.89;1733291;80;22480;-79
2020/12/01 13:36:29;;;;;;;9.93;6.50;;;;;;;-3.66;70.80;93497.83;1771268;78;21635;-79
2020/12/01 13:39:50;;;;;;;11.40;6.73;;;;;;;-3.73;71.30;93496.69;1780309;80;21199;-78
2020/12/01 13:43:09;;;;;;;9.80;6.13;;;;;;;-3.82;71.72;93497.19;1838893;76;21745;-79
2020/12/01 13:45:46;;;;;;;10.23;6.43;;;;;;;-3.98;72.21;93504.75;1846458;77;21433;-78
2020/12/01 13:48:14;;;;;;;13.77;7.23;;;;;;;-4.09;72.62;93500.75;1874144;76;21184;-79
2020/12/01 13:50:50;;;;;;;13.27;6.50;;;;;;;-4.13;72.92;93508.54;1814595;78;21254;-79
2020/12/01 13:53:18;;;;;;;14.10;8.03;;;;;;;-4.19;73.16;93513.16;1779786;77;21148;-79
2020/12/01 13:55:47;;;;;;;13.47;8.03;;;;;;;-4.25;73.41;93513.58;1831221;78;21161;-78
2020/12/01 13:58:15;;;;;;;11.40;8.30;;;;;;;-4.30;73.59;93515.80;1801126;78;22192;-78
2020/12/01 14:00:44;;;;;;;13.07;7.77;;;;;;;-4.24;73.68;93513.84;1798350;78;21968;-78
2020/12/01 14:03:21;;;;;;;10.37;6.53;;;;;;;-4.21;73.57;93514.57;1783499;78;21129;-81
2020/12/01 14:05:53;;;;;;;11.67;7.23;;;;;;;-4.27;73.57;93511.23;1821839;77;21164;-81
2020/12/01 14:08:28;;;;;;;10.23;6.70;;;;;;;-4.33;73.70;93513.75;1792713;78;21169;-78
2020/12/01 14:10:58;;;;;;;9.57;6.27;;;;;;;-4.37;73.88;93510.67;1819911;78;21657;-80
2020/12/01 14:13:28;;;;;;;8.90;6.17;;;;;;;-4.38;73.87;93516.52;1819178;78;21622;-80
2020/12/01 14:15:57;;;;;;;14.87;10.07;;;;;;;-4.43;73.88;93513.99;1802068;78;21204;-79
2020/12/01 14:18:25;;;;;;;11.57;6.60;;;;;;;-4.50;74.12;93514.94;1789272;80;21141;-78
2020/12/01 14:20:53;;;;;;;12.10;6.10;;;;;;;-4.57;74.23;93523.30;1801264;77;21109;-79
2020/12/01 14:23:22;;;;;;;12.30;6.43;;;;;;;-4.60;74.24;93521.78;1853353;77;21168;-78
2020/12/01 14:25:53;;;;;;;12.00;7.47;;;;;;;-4.67;74.32;93516.88;1790468;80;21251;-79
2020/12/01 14:28:21;;;;;;;14.93;7.13;;;;;;;-4.72;74.48;93520.97;1790909;79;21185;-78
2020/12/01 14:30:50;;;;;;;16.03;6.60;;;;;;;-4.75;74.62;93512.27;1790600;80;21208;-78
2020/12/01 14:33:19;;;;;;;10.30;6.60;;;;;;;-4.74;74.68;93513.83;1788636;80;21157;-79
2020/12/01 14:35:47;;;;;;;12.43;7.30;;;;;;;-4.77;74.64;93515.23;1790097;78;21128;-78
2020/12/01 14:38:25;;;;;;;13.53;6.47;;;;;;;-4.79;74.73;93514.73;1819547;78;21065;-77
2020/12/01 14:40:54;;;;;;;11.40;6.20;;;;;;;-4.81;74.82;93520.08;1787413;80;21182;-78
2020/12/01 14:43:22;;;;;;;9.53;6.30;;;;;;;-4.84;74.74;93521.47;1844577;76;21141;-79
2020/12/01 14:45:51;;;;;;;12.03;7.57;;;;;;;-4.90;74.82;93520.77;1840445;77;21433;-77
2020/12/01 14:48:27;;;;;;;11.47;8.37;;;;;;;-4.91;74.94;93521.08;1741473;77;21155;-78
2020/12/01 14:51:30;;;;;;;10.73;7.57;;;;;;;-4.96;75.04;93519.32;1818274;75;22468;-77
2020/12/01 14:54:20;;;;;;;12.43;7.20;;;;;;;-4.97;75.17;93520.92;1887921;75;21394;-78
2020/12/01 14:57:19;;;;;;;13.07;7.47;;;;;;;-4.87;74.97;93522.60;1806311;76;21155;-78
2020/12/01 15:00:27;;;;;;;15.37;7.90;;;;;;;-4.84;74.53;93524.67;1879111;76;21160;-78
2020/12/01 15:03:36;;;;;;;11.93;7.13;;;;;;;-4.89;74.62;93516.25;1846310;76;21278;-79
2020/12/01 15:06:30;;;;;;;15.07;7.70;;;;;;;-4.99;74.74;93522.56;1858946;77;22080;-79
2020/12/01 15:09:26;;;;;;;12.15;6.92;;;;;;;-5.07;75.05;93520.60;1841491;76;21853;-79
2020/12/01 15:12:37;;;;;;;13.72;7.72;;;;;;;-5.05;75.08;93522.95;1859925;77;21165;-79
2020/12/01 15:15:26;;;;;;;15.27;8.40;;;;;;;-5.20;75.23;93531.43;1824557;78;21618;-79
2020/12/01 15:17:59;;;;;;;15.20;9.00;;;;;;;-5.38;75.59;93537.08;1810794;78;21154;-80
2020/12/01 15:20:27;;;;;;;16.20;8.97;;;;;;;-5.36;76.07;93534.12;1837855;78;21177;-80
2020/12/01 15:23:04;;;;;;;22.10;11.67;;;;;;;-5.40;76.09;93543.74;1899581;75;21157;-79
2020/12/01 15:25:33;;;;;;;19.27;10.73;;;;;;;-5.46;76.38;93540.38;1846853;75;21509;-78
2020/12/01 15:28:11;;;;;;;20.17;11.50;;;;;;;-5.40;76.60;93542.41;1870078;74;21139;-78
2020/12/01 15:30:39;;;;;;;51.07;23.70;;;;;;;-5.33;76.41;93544.15;1889153;75;21151;-78
2020/12/01 15:33:09;;;;;;;119.73;59.27;;;;;;;-5.33;76.49;93540.17;1868577;74;21791;-78
2020/12/01 15:38:16;;;;;;;29.37;15.23;;;;;;;-5.39;77.27;93547.95;1883072;76;26508;-79
2020/12/01 15:41:00;;;;;;;;;;;;;;;-5.45;77.30;93551.25;1822308;77;21524;-77
2020/12/01 15:43:41;;;;;;;27.90;14.60;;;;;;;-5.38;77.21;93552.17;1815715;77;21174;-77
2020/12/01 15:46:19;;;;;;;28.57;14.93;;;;;;;-5.35;76.79;93552.92;1816589;76;21167;-78
2020/12/01 15:48:48;;;;;;;30.50;16.30;;;;;;;-5.43;76.66;93550.95;1850112;76;21142;-76
2020/12/01 15:51:35;;;;;;;29.90;15.70;;;;;;;-5.54;76.77;93556.95;1850312;77;21142;-76
2020/12/01 15:54:25;;;;;;;23.73;11.80;;;;;;;-5.67;76.95;93554.53;1828018;77;22262;-74
2020/12/01 15:57:30;;;;;;;26.57;14.77;;;;;;;-5.75;77.43;93559.72;1752918;80;21660;-77
2020/12/01 16:00:26;;;;;;;26.40;14.37;;;;;;;-5.78;77.40;93552.34;1783592;80;21205;-76
2020/12/01 16:03:05;;;;;;;22.50;13.50;;;;;;;-5.84;77.45;93557.45;1772019;79;21178;-76
2020/12/01 16:05:46;;;;;;;16.07;9.10;;;;;;;-5.84;77.59;93560.11;1786589;80;21188;-77
2020/12/01 16:08:29;;;;;;;15.80;10.00;;;;;;;-5.95;77.67;93560.29;1770356;79;21189;-75
2020/12/01 16:11:23;;;;;;;23.33;13.20;;;;;;;-6.12;78.19;93558.72;1789989;80;21249;-79
2020/12/01 16:14:45;;;;;;;23.57;11.90;;;;;;;-6.21;78.55;93565.72;1773335;79;21202;-77
2020/12/01 16:17:30;;;;;;;28.97;15.77;;;;;;;-6.26;78.81;93571.88;1804109;78;21252;-74
2020/12/01 16:20:15;;;;;;;21.30;12.17;;;;;;;-6.29;78.88;93579.59;1804255;78;21142;-77
2020/12/01 16:22:45;;;;;;;27.45;13.88;;;;;;;-6.32;79.12;93566.39;1856770;76;21129;-76
2020/12/01 16:25:15;;;;;;;28.23;15.97;;;;;;;-6.33;79.05;93569.34;1870543;75;21246;-77
2020/12/01 16:28:09;;;;;;;28.30;15.23;;;;;;;-6.39;79.36;93573.92;1872562;76;21095;-77
2020/12/01 16:30:38;;;;;;;25.67;14.40;;;;;;;-6.38;79.51;93577.59;1865441;76;21181;-76
2020/12/01 16:33:09;;;;;;;26.10;14.10;;;;;;;-6.36;79.49;93578.11;1814145;77;21244;-77
2020/12/01 16:35:43;;;;;;;28.33;16.60;;;;;;;-6.32;79.38;93582.27;1821956;77;21102;-78
2020/12/01 16:38:43;;;;;;;27.87;13.97;;;;;;;-6.34;79.48;93588.40;1829239;77;21523;-77
2020/12/01 16:41:17;;;;;;;27.73;15.63;;;;;;;-6.30;79.32;93585.43;1803224;78;21253;-78
2020/12/01 16:44:30;;;;;;;28.40;14.53;;;;;;;-6.34;78.83;93589.72;1821704;78;21940;-78
2020/12/01 16:47:29;;;;;;;25.20;13.93;;;;;;;-6.43;78.95;93588.77;1819928;78;21186;-80
2020/12/01 16:50:20;;;;;;;26.27;13.23;;;;;;;-6.51;79.11;93592.84;1833975;76;21214;-77
2020/12/01 16:53:26;;;;;;;24.97;13.10;;;;;;;-6.62;79.37;93600.14;1820515;78;21654;-74
2020/12/01 16:56:14;;;;;;;21.20;11.93;;;;;;;-6.66;79.66;93601.75;1770651;78;21214;-78
2020/12/01 16:58:57;;;;;;;22.57;11.53;;;;;;;-6.72;80.04;93607.41;1831141;76;21174;-77
2020/12/01 17:01:43;;;;;;;25.33;11.97;;;;;;;-6.66;80.45;93607.04;1836708;77;21177;-80
2020/12/01 17:04:42;;;;;;;23.23;13.03;;;;;;;-6.59;80.22;93609.34;1837065;76;21167;-80
2020/12/01 17:07:19;;;;;;;23.23;12.37;;;;;;;-6.62;79.93;93607.27;1805667;77;22172;-76
2020/12/01 17:10:03;;;;;;;23.60;13.87;;;;;;;-6.67;80.10;93612.63;1829904;77;21192;-77
2020/12/01 17:13:06;;;;;;;23.20;11.50;;;;;;;-6.64;80.35;93611.52;1829058;77;21422;-76
2020/12/01 17:16:02;;;;;;;20.27;11.83;;;;;;;-6.62;79.88;93609.91;1823486;78;21268;-77
2020/12/01 17:18:31;;;;;;;22.73;12.40;;;;;;;-6.69;79.97;93604.98;1822436;75;21182;-79
2020/12/01 17:21:00;;;;;;;21.17;11.50;;;;;;;-6.62;80.15;93617.33;1853776;77;21671;-78
2020/12/01 17:23:29;;;;;;;20.20;10.47;;;;;;;-6.53;80.03;93610.88;1796399;78;21733;-78
2020/12/01 17:25:59;;;;;;;14.77;8.17;;;;;;;-6.51;79.91;93614.00;1826377;78;21690;-81
2020/12/01 17:28:31;;;;;;;14.07;9.27;;;;;;;-6.51;79.39;93615.33;1843547;76;21146;-78
2020/12/01 17:31:35;;;;;;;19.93;10.10;;;;;;;-6.62;79.36;93617.33;1844387;77;21163;-81
2020/12/01 17:34:30;;;;;;;22.33;10.60;;;;;;;-6.70;79.70;93617.94;1826397;74;22283;-78
2020/12/01 17:37:15;;;;;;;14.10;8.10;;;;;;;-6.76;80.16;93621.73;1847092;77;21217;-79
2020/12/01 17:39:52;;;;;;;16.60;9.53;;;;;;;-6.77;80.61;93612.73;1843683;76;21175;-78
2020/12/01 17:42:22;;;;;;;16.60;9.63;;;;;;;-6.78;80.66;93619.10;1847481;77;21636;-77
2020/12/01 17:45:01;;;;;;;11.37;7.40;;;;;;;-6.77;80.63;93617.52;1768959;80;21631;-76
2020/12/01 17:47:58;;;;;;;14.13;7.90;;;;;;;-6.74;80.48;93621.44;1776558;79;21575;-76
2020/12/01 17:50:33;;;;;;;15.97;8.70;;;;;;;-6.73;80.46;93615.88;1767828;79;21144;-76
2020/12/01 17:53:31;;;;;;;14.93;8.33;;;;;;;-6.66;80.81;93616.84;1771844;80;21191;-79
2020/12/01 17:56:00;;;;;;;14.93;8.10;;;;;;;-6.58;81.02;93618.06;1772618;80;21152;-75
2020/12/01 17:58:33;;;;;;;12.47;7.43;;;;;;;-6.42;80.85;93619.47;1808496;76;21584;-79
2020/12/01 18:01:05;;;;;;;13.23;7.10;;;;;;;-6.36;79.87;93615.16;1846308;77;21759;-76
2020/12/01 18:03:33;;;;;;;12.60;7.57;;;;;;;-6.38;79.62;93619.16;1785034;79;21638;-78
2020/12/01 18:06:02;;;;;;;11.23;6.63;;;;;;;-6.40;79.56;93621.28;1836412;77;21663;-78
2020/12/01 18:08:33;;;;;;;12.80;7.83;;;;;;;-6.44;79.62;93613.66;1814530;77;21168;-77
2020/12/01 18:11:16;;;;;;;15.40;8.40;;;;;;;-6.49;79.89;93617.70;1811863;79;21183;-77
2020/12/01 18:14:09;;;;;;;15.50;8.23;;;;;;;-6.51;80.07;93622.48;1813776;76;22088;-79
2020/12/01 18:17:04;;;;;;;14.75;7.55;;;;;;;-6.51;80.25;93619.83;1830344;77;21115;-74
2020/12/01 18:20:16;;;;;;;17.30;8.13;;;;;;;-6.53;80.47;93624.64;1839570;77;21104;-78
2020/12/01 18:22:56;;;;;;;20.53;10.43;;;;;;;-6.55;80.69;93628.87;1815272;79;21163;-76
2020/12/01 18:25:39;;;;;;;22.10;12.03;;;;;;;-6.55;80.89;93617.51;1823951;76;21197;-79
2020/12/01 18:28:15;;;;;;;16.47;9.27;;;;;;;-6.46;81.35;93623.76;1800882;78;21540;-80
2020/12/01 18:30:43;;;;;;;19.77;11.27;;;;;;;-6.39;81.63;93624.98;1795177;76;21722;-78
2020/12/01 18:33:26;;;;;;;22.20;11.60;;;;;;;-6.31;81.40;93632.04;1836508;78;21775;-77
2020/12/01 18:35:55;;;;;;;19.80;11.30;;;;;;;-6.26;81.19;93630.10;1853471;76;21154;-77
2020/12/01 18:38:27;;;;;;;21.53;12.53;;;;;;;-6.23;81.07;93638.80;1836540;77;21155;-78
2020/12/01 18:40:58;;;;;;;25.93;13.77;;;;;;;-6.18;81.19;93628.13;1829268;77;21640;-77
2020/12/01 18:43:56;;;;;;;22.73;12.70;;;;;;;-6.09;81.48;93638.89;1836506;77;21122;-79
2020/12/01 18:46:24;;;;;;;17.93;9.70;;;;;;;-5.95;81.12;93638.41;1837091;77;21152;-77
2020/12/01 18:48:52;;;;;;;21.17;11.97;;;;;;;-5.86;80.63;93641.97;1817258;79;21206;-78
2020/12/01 18:51:24;;;;;;;23.60;12.40;;;;;;;-5.93;80.52;93640.25;1807820;79;21183;-77
2020/12/01 18:53:57;;;;;;;22.47;11.43;;;;;;;-5.98;80.67;93637.67;1816132;77;21348;-80
2020/12/01 18:56:29;;;;;;;21.10;11.23;;;;;;;-6.05;80.70;93645.19;1840785;77;21155;-77
2020/12/01 18:58:56;;;;;;;21.10;11.27;;;;;;;-6.12;80.80;93637.59;1828064;78;21080;-78
2020/12/01 19:01:26;;;;;;;21.53;11.27;;;;;;;-6.18;80.84;93636.08;1815784;77;21179;-78
2020/12/01 19:03:55;;;;;;;23.20;10.77;;;;;;;-6.22;80.90;93642.23;1795172;77;21136;-79
2020/12/01 19:06:24;;;;;;;18.63;10.90;;;;;;;-6.28;81.00;93639.39;1843113;77;22619;-79
2020/12/01 19:08:53;;;;;;;21.90;11.30;;;;;;;-6.33;81.05;93642.11;1813473;77;21175;-77
2020/12/01 19:11:24;;;;;;;17.83;9.97;;;;;;;-6.40;81.04;93642.45;1832396;76;21158;-76
2020/12/01 19:13:52;;;;;;;22.23;12.00;;;;;;;-6.48;81.03;93647.05;1822381;77;21186;-76
2020/12/01 19:16:23;;;;;;;20.60;11.43;;;;;;;-6.60;81.03;93647.45;1843263;76;21526;-78